createdAt,value
2022-07-30T00:00:44.599Z,1.40
2022-07-30T00:03:11.095Z,0.88
2022-07-30T00:05:37.585Z,1.00
2022-07-30T00:08:04.267Z,1.10
2022-07-30T00:10:30.837Z,0.90
2022-07-30T00:12:57.315Z,1.02
2022-07-30T00:15:24.521Z,1.25
2022-07-30T00:17:51.109Z,0.60
2022-07-30T00:20:18.525Z,1.00
2022-07-30T00:22:45.175Z,0.95
2022-07-30T00:25:11.673Z,0.93
2022-07-30T00:27:40.125Z,0.93
2022-07-30T00:30:19.126Z,1.00
2022-07-30T00:32:45.562Z,0.82
2022-07-30T00:35:12.075Z,0.85
2022-07-30T00:37:38.530Z,1.25
2022-07-30T00:40:06.953Z,1.02
2022-07-30T00:42:40.676Z,1.10
2022-07-30T00:45:08.164Z,0.70
2022-07-30T00:47:34.666Z,1.38
2022-07-30T00:50:04.183Z,1.00
2022-07-30T00:52:34.051Z,0.93
2022-07-30T00:55:00.938Z,0.80
2022-07-30T00:57:28.498Z,0.80
2022-07-30T00:59:55.305Z,0.85
2022-07-30T01:02:22.256Z,1.08
2022-07-30T01:04:48.962Z,0.90
2022-07-30T01:07:15.564Z,0.98
2022-07-30T01:09:42.099Z,1.20
2022-07-30T01:12:19.607Z,1.00
2022-07-30T01:14:46.156Z,1.15
2022-07-30T01:17:12.602Z,0.80
2022-07-30T01:19:52.147Z,0.70
2022-07-30T01:22:24.699Z,1.00
2022-07-30T01:25:06.267Z,1.10
2022-07-30T01:27:44.224Z,0.93
2022-07-30T01:30:12.382Z,1.00
2022-07-30T01:32:44.153Z,1.10
2022-07-30T01:35:12.796Z,0.90
2022-07-30T01:37:40.273Z,0.90
2022-07-30T01:40:07.487Z,0.90
2022-07-30T01:42:36.192Z,1.13
2022-07-30T01:45:04.366Z,1.17
2022-07-30T01:47:34.323Z,1.00
2022-07-30T01:50:02.737Z,1.00
2022-07-30T01:52:32.759Z,0.70
2022-07-30T01:55:01.075Z,0.90
2022-07-30T01:57:28.352Z,1.20
2022-07-30T02:00:01.540Z,1.13
2022-07-30T02:02:28.208Z,1.02
2022-07-30T02:04:54.756Z,0.70
2022-07-30T02:07:45.927Z,0.88
2022-07-30T02:10:19.259Z,0.70
2022-07-30T02:12:53.793Z,0.85
2022-07-30T02:15:20.188Z,1.00
2022-07-30T02:18:23.876Z,0.80
2022-07-30T02:21:07.611Z,0.88
2022-07-30T02:23:44.106Z,1.13
2022-07-30T02:26:18.564Z,0.80
2022-07-30T02:28:49.619Z,0.85
2022-07-30T02:31:20.897Z,0.57
2022-07-30T02:33:50.018Z,0.77
2022-07-30T02:36:19.205Z,0.90
2022-07-30T02:38:47.285Z,0.70
2022-07-30T02:41:15.359Z,1.17
2022-07-30T02:43:42.716Z,0.88
2022-07-30T02:46:11.405Z,0.95
2022-07-30T02:48:39.974Z,1.30
2022-07-30T02:51:08.547Z,1.25
2022-07-30T02:53:37.479Z,0.93
2022-07-30T02:56:08.067Z,0.70
2022-07-30T02:58:37.853Z,1.20
2022-07-30T03:01:05.496Z,1.00
2022-07-30T03:03:32.769Z,1.40
2022-07-30T03:06:00.407Z,0.95
2022-07-30T03:08:27.971Z,1.10
2022-07-30T03:10:56.192Z,1.00
2022-07-30T03:13:23.750Z,0.77
2022-07-30T03:15:52.007Z,0.88
2022-07-30T03:18:20.323Z,1.08
2022-07-30T03:20:50.517Z,1.08
2022-07-30T03:23:19.659Z,0.82
2022-07-30T03:25:52.530Z,1.02
2022-07-30T03:28:24.087Z,1.00
2022-07-30T03:30:52.567Z,1.13
2022-07-30T03:33:20.159Z,1.00
2022-07-30T03:35:48.855Z,0.82
2022-07-30T03:38:16.126Z,0.95
2022-07-30T03:40:43.778Z,0.70
2022-07-30T03:43:18.305Z,0.98
2022-07-30T03:45:58.991Z,1.48
2022-07-30T03:48:26.172Z,1.10
2022-07-30T03:50:54.113Z,0.82
2022-07-30T03:53:24.940Z,0.70
2022-07-30T03:55:53.547Z,1.35
2022-07-30T03:58:20.305Z,1.60
2022-07-30T04:00:48.915Z,2.05
2022-07-30T04:03:29.098Z,1.30
2022-07-30T04:05:55.928Z,1.25
2022-07-30T04:08:22.915Z,1.00
2022-07-30T04:10:50.468Z,1.05
2022-07-30T04:13:17.690Z,0.90
2022-07-30T04:16:37.885Z,1.00
2022-07-30T04:18:38.657Z,0.80
2022-07-30T04:21:17.327Z,0.90
2022-07-30T04:24:03.772Z,0.73
2022-07-30T04:26:34.421Z,1.02
2022-07-30T04:29:01.857Z,1.20
2022-07-30T04:31:29.512Z,1.15
2022-07-30T04:34:02.762Z,1.05
2022-07-30T04:36:33.117Z,1.00
2022-07-30T04:39:00.763Z,1.13
2022-07-30T04:41:27.417Z,1.20
2022-07-30T04:43:53.902Z,0.93
2022-07-30T04:46:24.720Z,0.93
2022-07-30T04:48:52.005Z,1.10
2022-07-30T04:51:24.133Z,0.80
2022-07-30T04:53:52.353Z,1.15
2022-07-30T04:56:21.344Z,1.35
2022-07-30T04:58:49.047Z,0.82
2022-07-30T05:01:21.383Z,1.02
2022-07-30T05:03:50.004Z,1.05
2022-07-30T05:06:17.455Z,1.10
2022-07-30T05:08:44.703Z,1.00
2022-07-30T05:11:13.150Z,1.00
2022-07-30T05:13:46.380Z,1.25
2022-07-30T05:16:13.123Z,1.40
2022-07-30T05:18:39.739Z,1.00
2022-07-30T05:21:06.931Z,1.05
2022-07-30T05:23:33.831Z,1.23
2022-07-30T05:26:00.378Z,0.98
2022-07-30T05:28:26.848Z,0.80
2022-07-30T05:30:54.514Z,1.00
2022-07-30T05:33:40.994Z,0.85
2022-07-30T05:36:09.537Z,1.08
2022-07-30T05:38:36.114Z,1.17
2022-07-30T05:41:02.558Z,1.05
2022-07-30T05:43:29.124Z,1.08
2022-07-30T05:45:55.622Z,1.40
2022-07-30T05:48:22.131Z,1.00
2022-07-30T05:50:48.538Z,1.38
2022-07-30T05:53:15.001Z,1.20
2022-07-30T05:55:41.483Z,0.80
2022-07-30T05:58:07.912Z,0.88
2022-07-30T06:00:35.616Z,1.13
2022-07-30T06:03:02.502Z,0.90
2022-07-30T06:05:29.015Z,0.90
2022-07-30T06:07:55.468Z,1.13
2022-07-30T06:10:21.918Z,1.02
2022-07-30T06:12:48.355Z,1.13
2022-07-30T06:15:14.983Z,1.10
2022-07-30T06:17:51.066Z,0.90
2022-07-30T06:20:24.780Z,1.00
2022-07-30T06:22:51.287Z,1.48
2022-07-30T06:25:18.705Z,0.88
2022-07-30T06:27:45.330Z,1.00
2022-07-30T06:30:12.101Z,0.90
2022-07-30T06:32:38.646Z,0.95
2022-07-30T06:35:05.733Z,1.05
2022-07-30T06:38:00.782Z,0.95
2022-07-30T06:40:19.196Z,1.02
2022-07-30T06:42:45.905Z,0.88
2022-07-30T06:45:12.329Z,0.85
2022-07-30T06:47:38.795Z,1.40
2022-07-30T06:50:05.834Z,1.90
2022-07-30T06:52:32.784Z,1.60
2022-07-30T06:54:59.218Z,1.02
2022-07-30T06:57:25.658Z,1.63
2022-07-30T06:59:56.304Z,1.55
2022-07-30T07:02:23.853Z,1.10
2022-07-30T07:04:50.312Z,1.48
2022-07-30T07:07:31.461Z,1.20
2022-07-30T07:10:03.983Z,1.50
2022-07-30T07:12:30.444Z,1.10
2022-07-30T07:14:56.934Z,1.20
2022-07-30T07:17:26.188Z,1.30
2022-07-30T07:20:01.770Z,1.13
2022-07-30T07:22:29.548Z,1.08
2022-07-30T07:24:56.105Z,2.40
2022-07-30T07:27:22.737Z,4.03
2022-07-30T07:30:05.780Z,2.90
2022-07-30T07:32:34.111Z,3.77
2022-07-30T07:35:00.956Z,3.75
2022-07-30T07:37:27.604Z,3.40
2022-07-30T07:39:54.092Z,4.05
2022-07-30T07:42:20.657Z,4.43
2022-07-30T07:44:47.141Z,4.22
2022-07-30T07:47:13.699Z,4.10
2022-07-30T07:49:40.193Z,3.70
2022-07-30T07:52:07.079Z,3.45
2022-07-30T07:54:33.580Z,3.70
2022-07-30T07:57:02.461Z,3.00
2022-07-30T07:59:40.331Z,3.35
2022-07-30T08:02:08.551Z,2.65
2022-07-30T08:04:35.932Z,3.53
2022-07-30T08:07:03.238Z,3.15
2022-07-30T08:09:44.060Z,2.88
2022-07-30T08:12:12.324Z,2.55
2022-07-30T08:14:39.083Z,2.72
2022-07-30T08:17:06.152Z,3.45
2022-07-30T08:19:33.167Z,2.53
2022-07-30T08:21:59.833Z,2.97
2022-07-30T08:24:26.866Z,2.53
2022-07-30T08:26:53.400Z,2.63
2022-07-30T08:29:19.858Z,3.05
2022-07-30T08:31:46.305Z,3.58
2022-07-30T08:34:13.561Z,2.88
2022-07-30T08:36:40.232Z,2.58
2022-07-30T08:39:06.699Z,2.67
2022-07-30T08:41:33.220Z,2.58
2022-07-30T08:44:01.578Z,2.90
2022-07-30T08:46:30.888Z,2.60
2022-07-30T08:48:58.106Z,2.38
2022-07-30T08:51:25.099Z,2.55
2022-07-30T08:53:51.683Z,2.05
2022-07-30T08:56:18.482Z,1.67
2022-07-30T08:58:45.856Z,1.95
2022-07-30T09:01:12.292Z,2.38
2022-07-30T09:03:44.520Z,1.80
2022-07-30T09:06:11.743Z,2.38
2022-07-30T09:08:38.244Z,2.15
2022-07-30T09:11:04.707Z,1.90
2022-07-30T09:13:37.642Z,1.90
2022-07-30T09:16:06.173Z,2.17
2022-07-30T09:18:34.195Z,1.67
2022-07-30T09:21:02.166Z,1.77
2022-07-30T09:23:28.960Z,1.90
2022-07-30T09:25:59.896Z,1.85
2022-07-30T09:28:31.263Z,2.25
2022-07-30T09:30:58.424Z,1.52
2022-07-30T09:33:38.756Z,1.52
2022-07-30T09:36:11.632Z,1.73
2022-07-30T09:38:47.830Z,1.40
2022-07-30T09:41:36.345Z,1.65
2022-07-30T09:44:03.968Z,1.48
2022-07-30T09:46:43.435Z,1.25
2022-07-30T09:49:29.204Z,1.80
2022-07-30T09:51:57.505Z,1.75
2022-07-30T09:54:52.837Z,1.83
2022-07-30T09:57:25.850Z,1.77
2022-07-30T09:59:55.626Z,1.77
2022-07-30T10:02:32.172Z,1.30
2022-07-30T10:05:10.157Z,1.70
2022-07-30T10:07:55.819Z,1.52
2022-07-30T10:10:34.245Z,1.50
2022-07-30T10:13:04.827Z,0.93
2022-07-30T10:15:34.832Z,1.50
2022-07-30T10:18:06.184Z,1.60
2022-07-30T10:20:33.793Z,1.35
2022-07-30T10:23:09.022Z,1.10
2022-07-30T10:25:37.032Z,1.20
2022-07-30T10:28:17.770Z,1.67
2022-07-30T10:30:45.214Z,1.50
2022-07-30T10:33:34.912Z,1.40
2022-07-30T10:35:59.147Z,1.42
2022-07-30T10:38:30.362Z,1.00
2022-07-30T10:41:27.514Z,1.15
2022-07-30T10:44:35.155Z,1.13
2022-07-30T10:47:13.980Z,1.10
2022-07-30T10:49:43.134Z,1.08
2022-07-30T10:52:10.727Z,0.85
2022-07-30T10:54:39.618Z,1.15
2022-07-30T10:57:11.683Z,0.80
2022-07-30T10:59:58.564Z,1.10
2022-07-30T11:02:31.307Z,0.75
2022-07-30T11:05:43.871Z,0.80
2022-07-30T11:08:36.190Z,0.85
2022-07-30T11:11:19.722Z,1.10
2022-07-30T11:13:54.159Z,0.98
2022-07-30T11:16:48.208Z,0.82
2022-07-30T11:19:55.235Z,0.95
2022-07-30T11:22:27.181Z,0.93
2022-07-30T11:24:54.096Z,0.70
2022-07-30T11:27:36.298Z,0.90
2022-07-30T11:30:26.607Z,0.85
2022-07-30T11:32:57.514Z,1.15
2022-07-30T11:35:25.848Z,0.80
2022-07-30T11:38:22.283Z,1.60
2022-07-30T11:40:49.093Z,0.80
2022-07-30T11:43:36.025Z,1.48
2022-07-30T11:46:10.483Z,1.42
2022-07-30T11:51:05.159Z,1.02
2022-07-30T11:53:31.935Z,0.70
2022-07-30T11:56:00.541Z,0.80
2022-07-30T11:58:28.746Z,1.00
2022-07-30T12:01:01.747Z,1.85
2022-07-30T12:03:31.755Z,5.72
2022-07-30T12:06:05.915Z,3.58
2022-07-30T12:11:09.271Z,2.50
2022-07-30T12:13:45.158Z,2.47
2022-07-30T12:16:17.281Z,2.35
2022-07-30T12:18:45.069Z,1.90
2022-07-30T12:21:12.732Z,2.33
2022-07-30T12:23:41.878Z,2.08
2022-07-30T12:26:08.758Z,3.00
2022-07-30T12:28:36.160Z,2.53
2022-07-30T12:31:04.379Z,1.20
2022-07-30T12:33:31.780Z,1.00
2022-07-30T12:36:00.067Z,1.42
2022-07-30T12:38:28.327Z,1.10
2022-07-30T12:41:03.385Z,0.73
2022-07-30T12:43:56.202Z,0.77
2022-07-30T12:46:26.587Z,1.38
2022-07-30T12:48:54.620Z,1.00
2022-07-30T12:51:26.131Z,0.90
2022-07-30T12:53:55.359Z,0.85
2022-07-30T12:56:27.305Z,1.77
2022-07-30T12:58:55.478Z,1.02
2022-07-30T13:01:44.236Z,1.17
2022-07-30T13:04:11.991Z,1.13
2022-07-30T13:06:40.193Z,1.00
2022-07-30T13:09:07.256Z,0.85
2022-07-30T13:11:48.750Z,1.15
2022-07-30T13:14:17.071Z,1.08
2022-07-30T13:16:43.739Z,1.00
2022-07-30T13:19:11.871Z,0.60
2022-07-30T13:21:39.905Z,0.80
2022-07-30T13:24:17.995Z,0.80
2022-07-30T13:26:45.154Z,0.88
2022-07-30T13:29:13.445Z,0.60
2022-07-30T13:31:43.015Z,1.10
2022-07-30T13:34:11.234Z,1.15
2022-07-30T13:36:37.824Z,0.70
2022-07-30T13:39:04.382Z,0.98
2022-07-30T13:41:31.008Z,1.00
2022-07-30T13:43:57.596Z,0.82
2022-07-30T13:46:24.155Z,0.70
2022-07-30T13:48:50.727Z,1.08
2022-07-30T13:51:17.413Z,1.60
2022-07-30T13:53:43.853Z,1.40
2022-07-30T13:56:12.443Z,1.98
2022-07-30T13:58:39.813Z,2.17
2022-07-30T14:01:07.132Z,2.00
2022-07-30T14:03:35.237Z,1.40
2022-07-30T14:06:10.645Z,1.42
2022-07-30T14:08:38.622Z,1.63
2022-07-30T14:11:05.103Z,1.52
2022-07-30T14:13:31.759Z,1.95
2022-07-30T14:15:58.434Z,1.73
2022-07-30T14:18:24.887Z,1.92
2022-07-30T14:20:53.631Z,1.73
2022-07-30T14:23:20.344Z,1.45
2022-07-30T14:25:47.187Z,1.48
2022-07-30T14:28:14.106Z,1.40
2022-07-30T14:30:40.967Z,1.73
2022-07-30T14:33:07.539Z,1.60
2022-07-30T14:35:34.010Z,1.30
2022-07-30T14:38:00.605Z,1.80
2022-07-30T14:40:27.122Z,1.27
2022-07-30T14:42:56.152Z,1.33
2022-07-30T14:45:23.111Z,1.63
2022-07-30T14:47:49.607Z,1.55
2022-07-30T14:50:16.280Z,1.40
2022-07-30T14:52:43.752Z,1.25
2022-07-30T14:55:10.495Z,26.98
2022-07-30T14:57:37.064Z,92.97
2022-07-30T15:00:05.825Z,41.10
2022-07-30T15:02:32.311Z,31.42
2022-07-30T15:04:58.878Z,23.92
2022-07-30T15:07:25.315Z,21.13
2022-07-30T15:09:51.759Z,19.77
2022-07-30T15:12:26.747Z,18.67
2022-07-30T15:14:53.867Z,21.27
2022-07-30T15:17:20.460Z,22.13
2022-07-30T15:19:51.014Z,17.80
2022-07-30T15:22:19.949Z,17.92
2022-07-30T15:24:46.503Z,15.48
2022-07-30T15:27:13.069Z,15.88
2022-07-30T15:29:39.587Z,15.52
2022-07-30T15:32:06.774Z,14.40
2022-07-30T15:34:37.024Z,14.63
2022-07-30T15:37:05.339Z,14.85
2022-07-30T15:39:33.473Z,13.90
2022-07-30T15:42:01.842Z,11.63
2022-07-30T15:44:28.706Z,13.15
2022-07-30T15:46:55.223Z,12.23
2022-07-30T15:49:21.771Z,12.68
2022-07-30T15:51:51.906Z,12.40
2022-07-30T15:54:23.291Z,11.75
2022-07-30T15:57:01.227Z,11.27
2022-07-30T15:59:28.734Z,11.05
2022-07-30T16:01:55.213Z,10.80
2022-07-30T16:04:22.053Z,10.93
2022-07-30T16:07:00.228Z,11.23
2022-07-30T16:09:26.817Z,10.95
2022-07-30T16:11:53.643Z,9.98
2022-07-30T16:14:20.215Z,8.95
2022-07-30T16:16:46.754Z,9.73
2022-07-30T16:19:13.251Z,9.70
2022-07-30T16:21:39.793Z,8.70
2022-07-30T16:24:07.112Z,8.15
2022-07-30T16:26:35.850Z,8.50
2022-07-30T16:29:02.316Z,7.78
2022-07-30T16:31:28.878Z,8.10
2022-07-30T16:33:55.395Z,6.57
2022-07-30T16:36:21.931Z,6.70
2022-07-30T16:38:48.696Z,6.43
2022-07-30T16:41:15.169Z,5.45
2022-07-30T16:43:41.636Z,6.57
2022-07-30T16:46:08.327Z,5.50
2022-07-30T16:48:34.860Z,5.88
2022-07-30T16:51:01.676Z,5.82
2022-07-30T16:53:28.593Z,5.35
2022-07-30T16:55:56.934Z,5.70
2022-07-30T16:58:30.722Z,4.70
2022-07-30T17:03:25.276Z,4.13
2022-07-30T17:05:53.062Z,4.28
2022-07-30T17:08:24.880Z,4.55
2022-07-30T17:10:52.998Z,4.70
2022-07-30T17:13:20.403Z,4.63
2022-07-30T17:15:47.253Z,4.25
2022-07-30T17:18:14.089Z,4.55
2022-07-30T17:20:40.858Z,4.38
2022-07-30T17:23:07.871Z,4.22
2022-07-30T17:25:34.374Z,3.58
2022-07-30T17:28:01.412Z,3.58
2022-07-30T17:30:29.408Z,3.40
2022-07-30T17:32:56.144Z,3.20
2022-07-30T17:35:24.662Z,2.95
2022-07-30T17:37:51.509Z,3.08
2022-07-30T17:40:28.416Z,3.47
2022-07-30T17:43:03.339Z,2.83
2022-07-30T17:45:30.896Z,3.28
2022-07-30T17:47:57.884Z,2.50
2022-07-30T17:50:24.379Z,2.47
2022-07-30T17:52:50.805Z,2.22
2022-07-30T17:55:17.310Z,2.35
2022-07-30T17:57:43.788Z,2.28
2022-07-30T18:00:10.811Z,2.40
2022-07-30T18:02:37.368Z,2.10
2022-07-30T18:05:04.201Z,1.80
2022-07-30T18:07:30.687Z,1.80
2022-07-30T18:09:57.163Z,1.85
2022-07-30T18:12:23.622Z,1.83
2022-07-30T18:14:50.122Z,0.80
2022-07-30T18:17:16.606Z,0.80
2022-07-30T18:19:43.087Z,0.80
2022-07-30T18:22:09.767Z,1.00
2022-07-30T18:24:40.251Z,0.70
2022-07-30T18:27:11.557Z,0.70
2022-07-30T18:29:38.088Z,0.80
2022-07-30T18:32:05.376Z,0.70
2022-07-30T18:34:32.195Z,0.40
2022-07-30T18:36:58.771Z,0.68
2022-07-30T18:39:25.398Z,0.63
2022-07-30T18:41:51.847Z,0.50
2022-07-30T18:44:18.362Z,0.55
2022-07-30T18:46:44.938Z,0.85
2022-07-30T18:49:34.285Z,0.50
2022-07-30T18:51:59.348Z,0.68
2022-07-30T18:54:25.924Z,1.02
2022-07-30T18:56:52.366Z,0.88
2022-07-30T18:59:18.799Z,0.60
2022-07-30T19:01:45.375Z,0.65
2022-07-30T19:04:11.903Z,0.70
2022-07-30T19:06:38.529Z,0.75
2022-07-30T19:09:07.571Z,0.60
2022-07-30T19:11:43.680Z,0.70
2022-07-30T19:14:10.262Z,1.02
2022-07-30T19:16:36.853Z,0.80
2022-07-30T19:19:03.482Z,0.80
2022-07-30T19:21:29.983Z,0.73
2022-07-30T19:23:56.491Z,1.25
2022-07-30T19:26:23.303Z,0.77
2022-07-30T19:28:49.776Z,0.55
2022-07-30T19:31:16.510Z,0.80
2022-07-30T19:33:43.368Z,0.90
2022-07-30T19:36:10.215Z,0.60
2022-07-30T19:38:39.828Z,0.70
2022-07-30T19:41:06.730Z,0.52
2022-07-30T19:43:34.167Z,0.77
2022-07-30T19:46:03.882Z,0.60
2022-07-30T19:48:32.539Z,0.70
2022-07-30T19:51:00.729Z,0.60
2022-07-30T19:53:31.327Z,0.65
2022-07-30T19:56:01.645Z,0.60
2022-07-30T19:58:28.435Z,0.50
2022-07-30T20:00:54.991Z,0.88
2022-07-30T20:03:26.172Z,1.05
2022-07-30T20:05:59.940Z,1.00
2022-07-30T20:08:28.062Z,0.70
2022-07-30T20:10:57.888Z,0.60
2022-07-30T20:13:44.454Z,0.50
2022-07-30T20:16:13.268Z,0.80
2022-07-30T20:18:40.716Z,0.57
2022-07-30T20:21:11.308Z,0.60
2022-07-30T20:23:41.333Z,0.82
2022-07-30T20:26:12.250Z,1.13
2022-07-30T20:28:40.110Z,0.70
2022-07-30T20:31:07.198Z,0.73
2022-07-30T20:33:36.050Z,1.17
2022-07-30T20:36:04.606Z,1.10
2022-07-30T20:38:33.698Z,1.00
2022-07-30T20:41:02.224Z,0.77
2022-07-30T20:43:28.893Z,0.98
2022-07-30T20:45:56.107Z,0.80
2022-07-30T20:48:25.338Z,0.85
2022-07-30T20:50:52.396Z,0.85
2022-07-30T20:53:19.774Z,0.88
2022-07-30T20:55:47.257Z,1.00
2022-07-30T20:58:17.468Z,0.57
2022-07-30T21:00:49.931Z,0.98
2022-07-30T21:03:21.724Z,1.00
2022-07-30T21:05:48.716Z,1.02
2022-07-30T21:08:17.889Z,1.50
2022-07-30T21:10:44.804Z,1.10
2022-07-30T21:13:12.631Z,0.95
2022-07-30T21:18:25.694Z,0.70
2022-07-30T21:20:53.163Z,1.05
2022-07-30T21:23:22.346Z,1.00
2022-07-30T21:26:01.369Z,1.00
2022-07-30T21:28:35.804Z,1.27
2022-07-30T21:31:03.859Z,1.00
2022-07-30T21:33:33.775Z,1.10
2022-07-30T21:36:01.002Z,1.20
2022-07-30T21:38:27.727Z,0.90
2022-07-30T21:40:55.198Z,1.15
2022-07-30T21:43:29.671Z,1.20
2022-07-30T21:45:57.492Z,1.13
2022-07-30T21:48:24.367Z,1.00
2022-07-30T21:50:50.908Z,1.17
2022-07-30T21:53:17.380Z,1.60
2022-07-30T21:55:56.843Z,1.00
2022-07-30T21:58:26.208Z,0.88
2022-07-30T22:00:54.982Z,1.33
2022-07-30T22:04:04.049Z,0.65
2022-07-30T22:06:12.667Z,0.75
2022-07-30T22:08:39.874Z,1.35
2022-07-30T22:11:09.084Z,1.13
2022-07-30T22:13:36.346Z,1.10
2022-07-30T22:18:48.032Z,1.00
2022-07-30T22:21:14.659Z,0.88
2022-07-30T22:23:54.793Z,1.30
2022-07-30T22:26:29.454Z,1.20
2022-07-30T22:28:55.907Z,0.80
2022-07-30T22:31:22.433Z,1.10
2022-07-30T22:33:50.914Z,1.38
2022-07-30T22:36:17.952Z,1.38
2022-07-30T22:38:58.887Z,1.17
2022-07-30T22:41:39.140Z,1.25
2022-07-30T22:44:06.723Z,1.38
2022-07-30T22:46:39.438Z,1.13
2022-07-30T22:49:23.592Z,1.05
2022-07-30T22:52:02.101Z,0.88
2022-07-30T22:54:37.316Z,1.38
2022-07-30T22:57:04.244Z,1.15
2022-07-30T22:59:58.264Z,1.50
2022-07-30T23:02:17.970Z,1.20
2022-07-30T23:04:44.541Z,1.55
2022-07-30T23:07:13.991Z,1.15
2022-07-30T23:09:49.448Z,1.50
2022-07-30T23:12:20.107Z,1.48
2022-07-30T23:12:32.821Z,0.77
2022-07-30T23:14:47.407Z,1.55
2022-07-30T23:17:13.972Z,1.60
2022-07-30T23:19:40.420Z,1.13
2022-07-30T23:22:07.162Z,1.33
2022-07-30T23:24:33.725Z,1.38
2022-07-30T23:27:00.483Z,1.40
2022-07-30T23:29:28.443Z,1.30
2022-07-30T23:31:55.434Z,1.60
2022-07-30T23:34:22.033Z,1.42
2022-07-30T23:36:48.517Z,1.38
2022-07-30T23:39:15.008Z,1.17
2022-07-30T23:41:43.713Z,1.38
2022-07-30T23:44:10.147Z,1.27
2022-07-30T23:46:37.132Z,1.50
2022-07-30T23:49:04.585Z,1.50
2022-07-30T23:51:33.597Z,1.40
2022-07-30T23:54:01.025Z,1.00
2022-07-30T23:56:27.511Z,1.27
2022-07-30T23:58:54.623Z,1.15
